Estación Meteorológica Peña el Pijo (Robertgarden) [ 11/30/23 14:31:30 CET ]

Fecha Hora Presion(HPa) Temp (°C) Humedad % Rocio (°C) Viento ( m/s) Direccion Lluvia 1Hora(mm) Lluvia 24H(mm) LLuvia Total(mm)
2011-Jan-28 01:01:14 996.000 -1.1 93 -2.1         20.72
2011-Jan-28 02:03:19 995.800 -1.2 94 -2.0         20.72
2011-Jan-28 03:01:13 995.800 -1.1 94 -1.9         20.72
2011-Jan-28 04:01:16 995.700 -1.1 94 -1.9         20.72
2011-Jan-28 05:01:14 995.600 -1.4 94 -2.2         20.72
2011-Jan-28 06:01:16 995.700 -0.9 94 -1.7         20.72
2011-Jan-28 07:01:14 996.300 -0.7 95 -1.4         20.72
2011-Jan-28 08:01:14 996.600 -0.2 95 -0.9         20.72
2011-Jan-28 09:01:16 997.200 0.1 95 -0.6         20.72
2011-Jan-28 10:01:13 997.900 0.9 95 0.1         20.72
2011-Jan-28 11:01:14 998.300 2.6 95 1.9       0.51 21.23
2011-Jan-28 12:01:14 998.400 7.8 92 6.6       0.51 21.23
2011-Jan-28 13:01:15 997.600 10.8 65 4.5       0.51 21.23
2011-Jan-28 14:01:13 997.300 10.3 63 3.5       0.51 21.23
2011-Jan-28 15:01:14 996.800 9.9 58 2.0       0.51 21.23
2011-Jan-28 16:01:11 997.100 9.2 58 1.4       0.51 21.23
2011-Jan-28 17:01:16 997.100 7.4 64 1.0 1.1 ESE   0.51 21.23
2011-Jan-28 18:01:12 997.600 6.3 67 0.6       0.51 21.23
2011-Jan-28 19:01:13 997.600 4.1 75 0.0       0.51 21.23
2011-Jan-28 20:01:14 998.000 1.7 82 -1.1       0.51 21.23
2011-Jan-28 21:01:13 997.900 1.3 85 -1.0       0.51 21.23
2011-Jan-28 22:01:17 998.900 1.5 88 -0.3       0.51 21.23
2011-Jan-28 23:01:12 998.900 2.1 88 0.3       0.51 21.23

Temperatura Máxima:10°    Temperatura Mínima:-1°
Presión Máxima:998.900 Hpa    Presión Mínima:995.600 Hpa


Volver